SVA504 OEMA-OKKK
Flight info
| Callsign | SVA504 |
|---|---|
| Flight time | 1h 22m |
| Altitude | 37000 |
| Route | MIXUG Q46 NADIB H79 GAS B417 HFR A788 KFR |
| Aircraft | A320/M-SDE3FGHIRWY/LB1 |
Departure
| Time | 2026-04-20 19:27 |
|---|---|
| Airport | Prince Mohammad Bin Abdulaziz Airport (OEMA) |
Arrival
| Time | 2026-04-20 20:50 |
|---|---|
| Airport | Kuwait International Airport (OKKK) |
| Time | Latitude | Longitude | Altitude | Speed | Heading |
|---|---|---|---|---|---|
| 2026-04-20 19:06 | 24.55674 | 39.71254 | 2141 ft | 0 kts | 79° |
| 2026-04-20 19:17 | 24.55671 | 39.71239 | 2141 ft | 2 kts | 79° |
| 2026-04-20 19:17 | 24.55668 | 39.71220 | 2138 ft | 2 kts | 79° |
| 2026-04-20 19:18 | 24.55664 | 39.71201 | 2141 ft | 3 kts | 79° |
| 2026-04-20 19:18 | 24.55661 | 39.71182 | 2139 ft | 3 kts | 72° |
| 2026-04-20 19:18 | 24.55653 | 39.71165 | 2136 ft | 3 kts | 35° |
| 2026-04-20 19:18 | 24.55637 | 39.71155 | 2137 ft | 3 kts | 7° |
| 2026-04-20 19:19 | 24.55622 | 39.71155 | 2139 ft | 0 kts | 336° |
| 2026-04-20 19:20 | 24.55647 | 39.71146 | 2137 ft | 11 kts | 343° |
| 2026-04-20 19:20 | 24.55717 | 39.71129 | 2140 ft | 10 kts | 349° |
| 2026-04-20 19:20 | 24.55778 | 39.71118 | 2140 ft | 9 kts | 351° |
| 2026-04-20 19:21 | 24.55848 | 39.71105 | 2140 ft | 10 kts | 350° |
| 2026-04-20 19:21 | 24.55908 | 39.71093 | 2140 ft | 8 kts | 349° |
| 2026-04-20 19:21 | 24.55987 | 39.71073 | 2141 ft | 12 kts | 338° |
| 2026-04-20 19:21 | 24.56009 | 39.71001 | 2140 ft | 11 kts | 260° |
| 2026-04-20 19:22 | 24.55997 | 39.70904 | 2138 ft | 14 kts | 278° |
| 2026-04-20 19:22 | 24.56082 | 39.70858 | 2136 ft | 14 kts | 349° |
| 2026-04-20 19:22 | 24.56171 | 39.70839 | 2138 ft | 14 kts | 348° |
| 2026-04-20 19:22 | 24.56313 | 39.70808 | 2139 ft | 24 kts | 349° |
| 2026-04-20 19:23 | 24.56476 | 39.70774 | 2138 ft | 24 kts | 348° |
| 2026-04-20 19:23 | 24.56647 | 39.70737 | 2139 ft | 26 kts | 349° |
| 2026-04-20 19:23 | 24.56826 | 39.70700 | 2137 ft | 27 kts | 349° |
| 2026-04-20 19:23 | 24.57011 | 39.70659 | 2139 ft | 28 kts | 348° |
| 2026-04-20 19:24 | 24.57180 | 39.70623 | 2140 ft | 21 kts | 349° |
| 2026-04-20 19:24 | 24.57323 | 39.70593 | 2140 ft | 21 kts | 349° |
| 2026-04-20 19:24 | 24.57415 | 39.70573 | 2141 ft | 11 kts | 349° |
| 2026-04-20 19:24 | 24.57489 | 39.70557 | 2141 ft | 12 kts | 349° |
| 2026-04-20 19:25 | 24.57555 | 39.70530 | 2142 ft | 9 kts | 309° |
| 2026-04-20 19:25 | 24.57560 | 39.70466 | 2142 ft | 9 kts | 260° |
| 2026-04-20 19:25 | 24.57545 | 39.70394 | 2141 ft | 11 kts | 254° |
| 2026-04-20 19:25 | 24.57503 | 39.70365 | 2140 ft | 7 kts | 175° |
| 2026-04-20 19:26 | 24.57473 | 39.70371 | 2140 ft | 0 kts | 170° |
| 2026-04-20 19:26 | 24.57441 | 39.70378 | 2137 ft | 24 kts | 169° |
| 2026-04-20 19:27 | 24.57022 | 39.70465 | 2136 ft | 96 kts | 169° |
| 2026-04-20 19:27 | 24.56170 | 39.70645 | 2132 ft | 151 kts | 169° |
| 2026-04-20 19:27 | 24.55008 | 39.70898 | 2319 ft | 177 kts | 171° |
| 2026-04-20 19:27 | 24.53820 | 39.71167 | 3025 ft | 174 kts | 172° |
| 2026-04-20 19:28 | 24.52627 | 39.71417 | 3545 ft | 175 kts | 173° |
| 2026-04-20 19:28 | 24.51413 | 39.71667 | 3971 ft | 184 kts | 173° |
| 2026-04-20 19:28 | 24.50069 | 39.71938 | 4207 ft | 208 kts | 174° |
| 2026-04-20 19:28 | 24.48562 | 39.72242 | 4495 ft | 232 kts | 173° |
| 2026-04-20 19:29 | 24.46918 | 39.72578 | 4818 ft | 255 kts | 173° |
| 2026-04-20 19:29 | 24.45102 | 39.72953 | 5272 ft | 273 kts | 173° |
| 2026-04-20 19:29 | 24.43227 | 39.73348 | 6084 ft | 276 kts | 173° |
| 2026-04-20 19:29 | 24.41334 | 39.73751 | 6875 ft | 278 kts | 173° |
| 2026-04-20 19:30 | 24.39432 | 39.74158 | 7682 ft | 279 kts | 174° |
| 2026-04-20 19:30 | 24.37522 | 39.74597 | 8533 ft | 283 kts | 168° |
| 2026-04-20 19:30 | 24.35779 | 39.75674 | 9317 ft | 298 kts | 141° |
| 2026-04-20 19:30 | 24.34607 | 39.77604 | 9859 ft | 316 kts | 113° |
| 2026-04-20 19:31 | 24.34358 | 39.80021 | 9992 ft | 327 kts | 88° |
| 2026-04-20 19:31 | 24.34645 | 39.82618 | 10022 ft | 359 kts | 83° |
| 2026-04-20 19:31 | 24.35062 | 39.85373 | 10023 ft | 378 kts | 82° |
| 2026-04-20 19:31 | 24.35543 | 39.88243 | 10012 ft | 385 kts | 81° |
| 2026-04-20 19:32 | 24.36019 | 39.91092 | 10010 ft | 389 kts | 82° |
| 2026-04-20 19:32 | 24.36479 | 39.93992 | 10010 ft | 388 kts | 83° |
| 2026-04-20 19:32 | 24.36918 | 39.96939 | 10015 ft | 387 kts | 83° |
| 2026-04-20 19:32 | 24.37338 | 39.99911 | 10354 ft | 398 kts | 83° |
| 2026-04-20 19:33 | 24.37749 | 40.02890 | 10939 ft | 403 kts | 83° |
| 2026-04-20 19:33 | 24.38168 | 40.05942 | 11541 ft | 408 kts | 83° |
| 2026-04-20 19:33 | 24.38593 | 40.09039 | 12144 ft | 412 kts | 83° |
| 2026-04-20 19:33 | 24.39025 | 40.12167 | 12754 ft | 417 kts | 82° |
| 2026-04-20 19:34 | 24.39468 | 40.15337 | 13346 ft | 422 kts | 82° |
| 2026-04-20 19:34 | 24.39924 | 40.18525 | 13934 ft | 426 kts | 80° |
| 2026-04-20 19:34 | 24.40826 | 40.21627 | 14451 ft | 431 kts | 62° |
| 2026-04-20 19:34 | 24.42534 | 40.24323 | 14978 ft | 432 kts | 44° |
| 2026-04-20 19:35 | 24.44891 | 40.26334 | 15496 ft | 429 kts | 25° |
| 2026-04-20 19:35 | 24.47651 | 40.27488 | 16008 ft | 424 kts | 6° |
| 2026-04-20 19:35 | 24.50521 | 40.27696 | 16533 ft | 416 kts | 349° |
| 2026-04-20 19:35 | 24.53433 | 40.27349 | 17081 ft | 418 kts | 347° |
| 2026-04-20 19:36 | 24.56299 | 40.26988 | 17633 ft | 421 kts | 347° |
| 2026-04-20 19:36 | 24.59228 | 40.26621 | 18179 ft | 425 kts | 347° |
| 2026-04-20 19:36 | 24.62172 | 40.26256 | 18653 ft | 428 kts | 347° |
| 2026-04-20 19:36 | 24.65147 | 40.25894 | 19131 ft | 431 kts | 347° |
| 2026-04-20 19:37 | 24.68138 | 40.25534 | 19617 ft | 433 kts | 347° |
| 2026-04-20 19:37 | 24.71137 | 40.25174 | 20084 ft | 436 kts | 347° |
| 2026-04-20 19:37 | 24.74162 | 40.24806 | 20543 ft | 438 kts | 347° |
| 2026-04-20 19:37 | 24.77194 | 40.24436 | 20996 ft | 441 kts | 347° |
| 2026-04-20 19:38 | 24.80253 | 40.24061 | 21443 ft | 443 kts | 347° |
| 2026-04-20 19:38 | 24.83328 | 40.23685 | 21874 ft | 445 kts | 347° |
| 2026-04-20 19:38 | 24.86409 | 40.23307 | 22302 ft | 448 kts | 347° |
| 2026-04-20 19:38 | 24.89477 | 40.22931 | 22720 ft | 450 kts | 347° |
| 2026-04-20 19:39 | 24.92601 | 40.22551 | 23123 ft | 452 kts | 347° |
| 2026-04-20 19:39 | 24.95732 | 40.22170 | 23504 ft | 455 kts | 347° |
| 2026-04-20 19:39 | 24.98891 | 40.21783 | 23831 ft | 457 kts | 347° |
| 2026-04-20 19:39 | 25.02053 | 40.21395 | 24154 ft | 459 kts | 347° |
| 2026-04-20 19:40 | 25.05240 | 40.21005 | 24476 ft | 461 kts | 347° |
| 2026-04-20 19:40 | 25.08439 | 40.20614 | 24796 ft | 463 kts | 346° |
| 2026-04-20 19:40 | 25.11639 | 40.20219 | 25107 ft | 465 kts | 346° |
| 2026-04-20 19:40 | 25.14864 | 40.19832 | 25418 ft | 468 kts | 348° |
| 2026-04-20 19:41 | 25.18169 | 40.19959 | 25709 ft | 485 kts | 3° |
| 2026-04-20 19:41 | 25.21427 | 40.21091 | 25987 ft | 502 kts | 20° |
| 2026-04-20 19:41 | 25.24339 | 40.23219 | 26241 ft | 517 kts | 38° |
| 2026-04-20 19:41 | 25.26696 | 40.26318 | 26489 ft | 528 kts | 57° |
| 2026-04-20 19:42 | 25.28130 | 40.30013 | 26699 ft | 534 kts | 75° |
| 2026-04-20 19:42 | 25.28921 | 40.34035 | 26908 ft | 537 kts | 79° |
| 2026-04-20 19:42 | 25.29662 | 40.38079 | 27110 ft | 539 kts | 79° |
| 2026-04-20 19:42 | 25.30396 | 40.42158 | 27316 ft | 542 kts | 79° |
| 2026-04-20 19:43 | 25.31130 | 40.46257 | 27517 ft | 544 kts | 79° |
| 2026-04-20 19:43 | 25.31871 | 40.50359 | 27714 ft | 547 kts | 79° |
| 2026-04-20 19:43 | 25.32623 | 40.54489 | 27952 ft | 548 kts | 79° |
| 2026-04-20 19:43 | 25.33377 | 40.58621 | 28241 ft | 548 kts | 79° |
| 2026-04-20 19:44 | 25.34128 | 40.62743 | 28509 ft | 549 kts | 79° |
| 2026-04-20 19:44 | 25.34882 | 40.66885 | 28780 ft | 549 kts | 79° |
| 2026-04-20 19:44 | 25.35633 | 40.71020 | 29052 ft | 550 kts | 79° |
| 2026-04-20 19:44 | 25.36534 | 40.75135 | 29327 ft | 551 kts | 72° |
| 2026-04-20 19:45 | 25.37849 | 40.79053 | 29576 ft | 551 kts | 66° |
| 2026-04-20 19:45 | 25.39315 | 40.83019 | 29850 ft | 551 kts | 66° |
| 2026-04-20 19:45 | 25.40746 | 40.86900 | 30100 ft | 552 kts | 66° |
| 2026-04-20 19:45 | 25.42197 | 40.90840 | 30327 ft | 553 kts | 66° |
| 2026-04-20 19:46 | 25.43639 | 40.94777 | 30549 ft | 554 kts | 66° |
| 2026-04-20 19:46 | 25.45087 | 40.98733 | 30780 ft | 554 kts | 66° |
| 2026-04-20 19:46 | 25.46532 | 41.02681 | 31003 ft | 555 kts | 66° |
| 2026-04-20 19:46 | 25.47983 | 41.06647 | 31238 ft | 556 kts | 66° |
| 2026-04-20 19:47 | 25.49431 | 41.10606 | 31464 ft | 556 kts | 65° |
| 2026-04-20 19:47 | 25.50885 | 41.14584 | 31696 ft | 557 kts | 65° |
| 2026-04-20 19:47 | 25.52337 | 41.18559 | 31935 ft | 558 kts | 65° |
| 2026-04-20 19:47 | 25.53794 | 41.22546 | 32175 ft | 558 kts | 65° |
| 2026-04-20 19:48 | 25.55249 | 41.26539 | 32409 ft | 559 kts | 65° |
| 2026-04-20 19:48 | 25.56699 | 41.30523 | 32645 ft | 559 kts | 65° |
| 2026-04-20 19:48 | 25.58152 | 41.34526 | 32859 ft | 560 kts | 65° |
| 2026-04-20 19:48 | 25.59586 | 41.38480 | 33100 ft | 560 kts | 65° |
| 2026-04-20 19:49 | 25.61055 | 41.42531 | 33346 ft | 561 kts | 64° |
| 2026-04-20 19:49 | 25.62490 | 41.46492 | 33567 ft | 561 kts | 64° |
| 2026-04-20 19:49 | 25.63940 | 41.50495 | 33816 ft | 561 kts | 64° |
| 2026-04-20 19:49 | 25.65394 | 41.54515 | 34035 ft | 561 kts | 64° |
| 2026-04-20 19:50 | 25.66848 | 41.58536 | 34253 ft | 561 kts | 64° |
| 2026-04-20 19:50 | 25.68296 | 41.62543 | 34475 ft | 561 kts | 64° |
| 2026-04-20 19:50 | 25.69745 | 41.66563 | 34692 ft | 561 kts | 64° |
| 2026-04-20 19:50 | 25.71189 | 41.70582 | 34895 ft | 560 kts | 64° |
| 2026-04-20 19:51 | 25.72627 | 41.74585 | 35121 ft | 560 kts | 64° |
| 2026-04-20 19:51 | 25.74068 | 41.78599 | 35338 ft | 559 kts | 64° |
| 2026-04-20 19:51 | 25.75508 | 41.82611 | 35529 ft | 559 kts | 64° |
| 2026-04-20 19:51 | 25.76943 | 41.86608 | 35730 ft | 559 kts | 64° |
| 2026-04-20 19:52 | 25.78382 | 41.90615 | 35921 ft | 558 kts | 64° |
| 2026-04-20 19:52 | 25.79816 | 41.94605 | 36117 ft | 558 kts | 64° |
| 2026-04-20 19:52 | 25.81252 | 41.98607 | 36313 ft | 557 kts | 64° |
| 2026-04-20 19:52 | 25.82685 | 42.02608 | 36492 ft | 557 kts | 64° |
| 2026-04-20 19:53 | 25.84108 | 42.06595 | 36683 ft | 557 kts | 64° |
| 2026-04-20 19:53 | 25.85533 | 42.10594 | 36854 ft | 556 kts | 64° |
| 2026-04-20 19:53 | 25.86952 | 42.14587 | 36933 ft | 558 kts | 64° |
| 2026-04-20 19:54 | 25.89807 | 42.22629 | 36939 ft | 559 kts | 64° |
| 2026-04-20 19:54 | 25.92664 | 42.30662 | 36919 ft | 559 kts | 64° |
| 2026-04-20 19:55 | 25.95522 | 42.38693 | 36939 ft | 559 kts | 64° |
| 2026-04-20 19:55 | 25.98349 | 42.46695 | 36918 ft | 559 kts | 64° |
| 2026-04-20 19:56 | 26.00717 | 42.53429 | 36936 ft | 559 kts | 64° |
| 2026-04-20 19:56 | 26.04009 | 42.62790 | 36944 ft | 559 kts | 64° |
| 2026-04-20 19:57 | 26.06841 | 42.70844 | 36951 ft | 560 kts | 64° |
| 2026-04-20 19:57 | 26.09679 | 42.78920 | 36951 ft | 560 kts | 64° |
| 2026-04-20 19:58 | 26.12500 | 42.86989 | 36949 ft | 560 kts | 65° |
| 2026-04-20 19:58 | 26.15315 | 42.95059 | 36950 ft | 560 kts | 65° |
| 2026-04-20 19:59 | 26.18097 | 43.03144 | 36950 ft | 561 kts | 69° |
| 2026-04-20 19:59 | 26.19766 | 43.11597 | 36955 ft | 564 kts | 79° |
| 2026-04-20 20:00 | 26.21083 | 43.20196 | 36952 ft | 564 kts | 79° |
| 2026-04-20 20:00 | 26.22401 | 43.28795 | 36952 ft | 563 kts | 79° |
| 2026-04-20 20:01 | 26.23713 | 43.37410 | 36947 ft | 563 kts | 79° |
| 2026-04-20 20:01 | 26.25013 | 43.46012 | 36942 ft | 563 kts | 79° |
| 2026-04-20 20:02 | 26.26093 | 43.53168 | 36939 ft | 563 kts | 79° |
| 2026-04-20 20:02 | 26.27599 | 43.63159 | 36933 ft | 563 kts | 79° |
| 2026-04-20 20:03 | 26.28768 | 43.70353 | 36937 ft | 562 kts | 73° |
| 2026-04-20 20:03 | 26.31579 | 43.78298 | 36936 ft | 550 kts | 54° |
| 2026-04-20 20:04 | 26.36077 | 43.85023 | 36932 ft | 533 kts | 37° |
| 2026-04-20 20:04 | 26.41290 | 43.90876 | 36945 ft | 532 kts | 37° |
| 2026-04-20 20:05 | 26.46499 | 43.96751 | 36937 ft | 533 kts | 37° |
| 2026-04-20 20:05 | 26.51710 | 44.02639 | 36940 ft | 533 kts | 37° |
| 2026-04-20 20:06 | 26.56926 | 44.08550 | 36946 ft | 534 kts | 37° |
| 2026-04-20 20:06 | 26.62137 | 44.14458 | 36944 ft | 534 kts | 37° |
| 2026-04-20 20:07 | 26.67349 | 44.20371 | 36945 ft | 534 kts | 37° |
| 2026-04-20 20:07 | 26.72535 | 44.26262 | 36944 ft | 534 kts | 38° |
| 2026-04-20 20:08 | 26.77747 | 44.32190 | 36946 ft | 534 kts | 38° |
| 2026-04-20 20:08 | 26.82958 | 44.38120 | 36948 ft | 534 kts | 38° |
| 2026-04-20 20:09 | 26.88163 | 44.44059 | 36946 ft | 534 kts | 38° |
| 2026-04-20 20:09 | 26.93360 | 44.50011 | 36948 ft | 535 kts | 38° |
| 2026-04-20 20:10 | 26.98568 | 44.55973 | 36950 ft | 534 kts | 38° |
| 2026-04-20 20:10 | 27.03767 | 44.61926 | 36945 ft | 534 kts | 38° |
| 2026-04-20 20:11 | 27.08924 | 44.67848 | 36950 ft | 534 kts | 38° |
| 2026-04-20 20:11 | 27.14112 | 44.73811 | 36954 ft | 534 kts | 38° |
| 2026-04-20 20:12 | 27.19301 | 44.79796 | 36958 ft | 534 kts | 39° |
| 2026-04-20 20:12 | 27.24482 | 44.85770 | 36963 ft | 534 kts | 39° |
| 2026-04-20 20:13 | 27.32251 | 44.94742 | 36963 ft | 534 kts | 39° |
| 2026-04-20 20:13 | 27.37421 | 45.00728 | 36968 ft | 534 kts | 39° |
| 2026-04-20 20:14 | 27.42591 | 45.06717 | 36970 ft | 534 kts | 39° |
| 2026-04-20 20:14 | 27.47735 | 45.12687 | 36952 ft | 534 kts | 39° |
| 2026-04-20 20:15 | 27.52906 | 45.18696 | 36959 ft | 535 kts | 40° |
| 2026-04-20 20:15 | 27.58102 | 45.24684 | 36960 ft | 533 kts | 38° |
| 2026-04-20 20:16 | 27.63524 | 45.30357 | 36967 ft | 531 kts | 35° |
| 2026-04-20 20:16 | 27.69072 | 45.35878 | 36963 ft | 532 kts | 35° |
| 2026-04-20 20:17 | 27.74574 | 45.41470 | 36965 ft | 533 kts | 36° |
| 2026-04-20 20:17 | 27.79988 | 45.47124 | 36961 ft | 534 kts | 37° |
| 2026-04-20 20:18 | 27.85437 | 45.52842 | 36963 ft | 535 kts | 37° |
| 2026-04-20 20:18 | 27.90866 | 45.58639 | 36954 ft | 538 kts | 39° |
| 2026-04-20 20:19 | 27.96084 | 45.64737 | 36953 ft | 541 kts | 41° |
| 2026-04-20 20:19 | 28.01217 | 45.70971 | 36949 ft | 542 kts | 41° |
| 2026-04-20 20:20 | 28.06398 | 45.77166 | 36951 ft | 542 kts | 40° |
| 2026-04-20 20:20 | 28.11617 | 45.83266 | 36956 ft | 542 kts | 40° |
| 2026-04-20 20:21 | 28.16873 | 45.89406 | 36969 ft | 543 kts | 40° |
| 2026-04-20 20:21 | 28.22102 | 45.95578 | 36979 ft | 543 kts | 41° |
| 2026-04-20 20:22 | 28.27329 | 46.01783 | 36986 ft | 544 kts | 41° |
| 2026-04-20 20:22 | 28.32419 | 46.08307 | 36985 ft | 550 kts | 52° |
| 2026-04-20 20:23 | 28.35929 | 46.16055 | 36983 ft | 555 kts | 71° |
| 2026-04-20 20:23 | 28.37573 | 46.24529 | 36975 ft | 553 kts | 83° |
| 2026-04-20 20:24 | 28.38800 | 46.33091 | 36973 ft | 554 kts | 83° |
| 2026-04-20 20:24 | 28.40052 | 46.41835 | 36969 ft | 554 kts | 83° |
| 2026-04-20 20:25 | 28.41283 | 46.50478 | 36966 ft | 554 kts | 83° |
| 2026-04-20 20:25 | 28.42507 | 46.59134 | 36963 ft | 554 kts | 83° |
| 2026-04-20 20:26 | 28.43517 | 46.66313 | 36962 ft | 554 kts | 83° |
| 2026-04-20 20:26 | 28.44943 | 46.76490 | 36969 ft | 554 kts | 83° |
| 2026-04-20 20:27 | 28.45123 | 46.77779 | 36943 ft | 554 kts | 83° |
| 2026-04-20 20:27 | 28.45766 | 46.82341 | 35943 ft | 553 kts | 84° |
| 2026-04-20 20:28 | 28.46082 | 46.84586 | 35216 ft | 553 kts | 84° |
| 2026-04-20 20:28 | 28.46687 | 46.88892 | 33913 ft | 549 kts | 85° |
| 2026-04-20 20:28 | 28.47283 | 46.93148 | 32434 ft | 544 kts | 85° |
| 2026-04-20 20:28 | 28.47871 | 46.97397 | 30797 ft | 543 kts | 85° |
| 2026-04-20 20:29 | 28.48443 | 47.01592 | 28951 ft | 544 kts | 85° |
| 2026-04-20 20:29 | 28.49021 | 47.05834 | 26868 ft | 545 kts | 84° |
| 2026-04-20 20:29 | 28.49603 | 47.10091 | 25333 ft | 540 kts | 83° |
| 2026-04-20 20:29 | 28.50173 | 47.14226 | 24239 ft | 524 kts | 83° |
| 2026-04-20 20:30 | 28.50732 | 47.18279 | 23047 ft | 513 kts | 83° |
| 2026-04-20 20:30 | 28.51270 | 47.22225 | 22155 ft | 495 kts | 83° |
| 2026-04-20 20:30 | 28.51790 | 47.26061 | 21333 ft | 490 kts | 82° |
| 2026-04-20 20:30 | 28.52304 | 47.29865 | 20503 ft | 483 kts | 82° |
| 2026-04-20 20:31 | 28.52810 | 47.33612 | 19686 ft | 475 kts | 82° |
| 2026-04-20 20:31 | 28.53307 | 47.37286 | 18899 ft | 467 kts | 82° |
| 2026-04-20 20:31 | 28.53800 | 47.40909 | 18118 ft | 458 kts | 82° |
| 2026-04-20 20:31 | 28.54273 | 47.44385 | 17803 ft | 431 kts | 82° |
| 2026-04-20 20:32 | 28.54714 | 47.47651 | 17667 ft | 404 kts | 82° |
| 2026-04-20 20:32 | 28.55120 | 47.50680 | 17432 ft | 383 kts | 82° |
| 2026-04-20 20:32 | 28.55511 | 47.53615 | 17114 ft | 371 kts | 82° |
| 2026-04-20 20:32 | 28.55895 | 47.56504 | 16856 ft | 367 kts | 82° |
| 2026-04-20 20:33 | 28.56275 | 47.59359 | 16609 ft | 365 kts | 82° |
| 2026-04-20 20:33 | 28.56653 | 47.62205 | 16355 ft | 363 kts | 82° |
| 2026-04-20 20:33 | 28.57033 | 47.65075 | 16107 ft | 361 kts | 82° |
| 2026-04-20 20:33 | 28.57190 | 47.67914 | 15855 ft | 358 kts | 89° |
| 2026-04-20 20:34 | 28.57250 | 47.70735 | 15610 ft | 357 kts | 89° |
| 2026-04-20 20:34 | 28.57315 | 47.73550 | 15368 ft | 355 kts | 89° |
| 2026-04-20 20:34 | 28.57380 | 47.76340 | 15131 ft | 353 kts | 89° |
| 2026-04-20 20:34 | 28.57445 | 47.79127 | 14870 ft | 351 kts | 89° |
| 2026-04-20 20:35 | 28.57509 | 47.81891 | 14471 ft | 348 kts | 89° |
| 2026-04-20 20:35 | 28.57570 | 47.84631 | 14056 ft | 344 kts | 88° |
| 2026-04-20 20:35 | 28.57632 | 47.87336 | 13634 ft | 341 kts | 88° |
| 2026-04-20 20:35 | 28.57692 | 47.90017 | 13201 ft | 338 kts | 88° |
| 2026-04-20 20:36 | 28.57749 | 47.92640 | 12888 ft | 336 kts | 88° |
| 2026-04-20 20:36 | 28.57814 | 47.95267 | 12519 ft | 326 kts | 85° |
| 2026-04-20 20:36 | 28.58194 | 47.97749 | 12169 ft | 312 kts | 71° |
| 2026-04-20 20:36 | 28.59006 | 47.99978 | 11824 ft | 298 kts | 58° |
| 2026-04-20 20:37 | 28.60142 | 48.01890 | 11481 ft | 286 kts | 50° |
| 2026-04-20 20:37 | 28.61329 | 48.03662 | 11142 ft | 279 kts | 50° |
| 2026-04-20 20:37 | 28.62495 | 48.05411 | 10806 ft | 276 kts | 50° |
| 2026-04-20 20:37 | 28.63650 | 48.07145 | 10476 ft | 274 kts | 50° |
| 2026-04-20 20:38 | 28.64801 | 48.08873 | 10151 ft | 274 kts | 50° |
| 2026-04-20 20:38 | 28.65953 | 48.10604 | 9824 ft | 274 kts | 50° |
| 2026-04-20 20:38 | 28.67104 | 48.12332 | 9470 ft | 274 kts | 50° |
| 2026-04-20 20:38 | 28.68398 | 48.13846 | 9117 ft | 268 kts | 33° |
| 2026-04-20 20:39 | 28.70039 | 48.14859 | 8761 ft | 261 kts | 14° |
| 2026-04-20 20:39 | 28.71771 | 48.15259 | 8412 ft | 249 kts | 357° |
| 2026-04-20 20:39 | 28.73448 | 48.15137 | 8072 ft | 235 kts | 347° |
| 2026-04-20 20:39 | 28.75048 | 48.14895 | 7729 ft | 228 kts | 347° |
| 2026-04-20 20:40 | 28.76601 | 48.14665 | 7395 ft | 222 kts | 347° |
| 2026-04-20 20:40 | 28.78115 | 48.14441 | 7062 ft | 217 kts | 347° |
| 2026-04-20 20:40 | 28.79599 | 48.14221 | 6730 ft | 213 kts | 347° |
| 2026-04-20 20:40 | 28.81053 | 48.14007 | 6404 ft | 208 kts | 346° |
| 2026-04-20 20:41 | 28.82499 | 48.13793 | 6058 ft | 205 kts | 346° |
| 2026-04-20 20:41 | 28.83914 | 48.13580 | 5708 ft | 205 kts | 346° |
| 2026-04-20 20:41 | 28.85306 | 48.13370 | 5374 ft | 204 kts | 346° |
| 2026-04-20 20:41 | 28.86715 | 48.13158 | 5036 ft | 204 kts | 346° |
| 2026-04-20 20:42 | 28.88125 | 48.12945 | 4704 ft | 204 kts | 346° |
| 2026-04-20 20:42 | 28.89504 | 48.12739 | 4411 ft | 197 kts | 346° |
| 2026-04-20 20:42 | 28.90854 | 48.12538 | 4053 ft | 195 kts | 346° |
| 2026-04-20 20:42 | 28.92199 | 48.12335 | 3718 ft | 196 kts | 346° |
| 2026-04-20 20:43 | 28.93549 | 48.12073 | 3367 ft | 197 kts | 339° |
| 2026-04-20 20:43 | 28.94846 | 48.11569 | 3057 ft | 195 kts | 332° |
| 2026-04-20 20:43 | 28.96071 | 48.10966 | 3015 ft | 191 kts | 330° |
| 2026-04-20 20:43 | 28.97279 | 48.10338 | 3014 ft | 191 kts | 329° |
| 2026-04-20 20:44 | 28.98483 | 48.09704 | 3015 ft | 191 kts | 329° |
| 2026-04-20 20:44 | 28.99686 | 48.09069 | 3016 ft | 190 kts | 329° |
| 2026-04-20 20:44 | 29.00886 | 48.08434 | 3016 ft | 190 kts | 329° |
| 2026-04-20 20:44 | 29.02070 | 48.07808 | 3018 ft | 188 kts | 329° |
| 2026-04-20 20:45 | 29.03232 | 48.07195 | 3004 ft | 181 kts | 329° |
| 2026-04-20 20:45 | 29.04370 | 48.06592 | 3011 ft | 180 kts | 329° |
| 2026-04-20 20:45 | 29.05499 | 48.05994 | 3018 ft | 179 kts | 329° |
| 2026-04-20 20:45 | 29.06630 | 48.05395 | 3018 ft | 179 kts | 329° |
| 2026-04-20 20:46 | 29.07760 | 48.04796 | 2972 ft | 180 kts | 329° |
| 2026-04-20 20:46 | 29.08894 | 48.04196 | 2797 ft | 177 kts | 329° |
| 2026-04-20 20:46 | 29.10011 | 48.03604 | 2582 ft | 178 kts | 329° |
| 2026-04-20 20:46 | 29.11141 | 48.03005 | 2367 ft | 180 kts | 330° |
| 2026-04-20 20:47 | 29.12266 | 48.02409 | 2151 ft | 176 kts | 331° |
| 2026-04-20 20:47 | 29.13355 | 48.01833 | 1911 ft | 169 kts | 332° |
| 2026-04-20 20:47 | 29.14402 | 48.01278 | 1708 ft | 164 kts | 334° |
| 2026-04-20 20:47 | 29.15427 | 48.00733 | 1481 ft | 161 kts | 334° |
| 2026-04-20 20:48 | 29.16439 | 48.00196 | 1272 ft | 158 kts | 335° |
| 2026-04-20 20:48 | 29.17419 | 47.99676 | 1061 ft | 157 kts | 335° |
| 2026-04-20 20:48 | 29.18410 | 47.99150 | 852 ft | 157 kts | 336° |
| 2026-04-20 20:48 | 29.19398 | 47.98625 | 652 ft | 156 kts | 335° |
| 2026-04-20 20:49 | 29.20374 | 47.98107 | 437 ft | 153 kts | 336° |
| 2026-04-20 20:49 | 29.21325 | 47.97598 | 239 ft | 150 kts | 336° |
| 2026-04-20 20:49 | 29.21956 | 47.97265 | 187 ft | 141 kts | 335° |
| 2026-04-20 20:49 | 29.22900 | 47.96769 | 176 ft | 72 kts | 335° |
| 2026-04-20 20:50 | 29.23109 | 47.96659 | 176 ft | 45 kts | 335° |
| 2026-04-20 20:50 | 29.23259 | 47.96592 | 176 ft | 12 kts | 354° |
| 2026-04-20 20:50 | 29.23318 | 47.96593 | 175 ft | 5 kts | 6° |
| 2026-04-20 20:50 | 29.23363 | 47.96606 | 171 ft | 8 kts | 19° |
| 2026-04-20 20:51 | 29.23432 | 47.96634 | 162 ft | 12 kts | 19° |
| 2026-04-20 20:51 | 29.23513 | 47.96661 | 156 ft | 13 kts | 7° |
| 2026-04-20 20:51 | 29.23596 | 47.96641 | 155 ft | 10 kts | 337° |
| 2026-04-20 20:51 | 29.23647 | 47.96632 | 153 ft | 12 kts | 25° |
| 2026-04-20 20:52 | 29.23682 | 47.96697 | 151 ft | 9 kts | 65° |
| 2026-04-20 20:52 | 29.23708 | 47.96760 | 151 ft | 8 kts | 65° |
| 2026-04-20 20:52 | 29.23733 | 47.96819 | 153 ft | 8 kts | 65° |
| 2026-04-20 20:52 | 29.23759 | 47.96883 | 151 ft | 13 kts | 64° |
| 2026-04-20 20:53 | 29.23791 | 47.96965 | 152 ft | 10 kts | 66° |
| 2026-04-20 20:53 | 29.23805 | 47.97007 | 153 ft | 3 kts | 77° |
| 2026-04-20 20:53 | 29.23802 | 47.97033 | 153 ft | 4 kts | 97° |
| 2026-04-20 20:53 | 29.23820 | 47.97053 | 154 ft | 6 kts | 29° |
| 2026-04-20 20:54 | 29.23853 | 47.97073 | 154 ft | 5 kts | 27° |
| 2026-04-20 20:54 | 29.23873 | 47.97085 | 154 ft | 0 kts | 27° |